Time;durP1;ratioP1;P1;durP2;ratioP2;P2;SDS_P1;SDS_P2;PMS_P1;PMS_P2;Temp;Humidity;BMP_temperature;BMP_pressure;BME280_temperature;BME280_humidity;BME280_pressure;Samples;Min_cycle;Max_cycle;Signal;HPM_P1;HPM_P2
2023/01/24 00:05:20;;;;;;;17.77;7.88;;;2.50;99.90;;;;;;20919343;28;20036;-76
2023/01/24 00:15:20;;;;;;;13.57;7.57;;;2.50;99.90;;;;;;20918564;28;20028;-77
2023/01/24 00:25:22;;;;;;;13.95;7.10;;;2.50;99.90;;;;;;20917412;28;20369;-76
2023/01/24 00:35:22;;;;;;;13.90;7.63;;;2.50;99.90;;;;;;20917230;28;20047;-76
2023/01/24 00:45:23;;;;;;;13.25;6.70;;;2.50;99.90;;;;;;20915745;28;20506;-76
2023/01/24 00:55:24;;;;;;;17.95;7.32;;;2.50;99.90;;;;;;20915257;28;20032;-76
2023/01/24 01:05:25;;;;;;;16.20;7.32;;;2.50;99.90;;;;;;20896492;28;20036;-77
2023/01/24 01:15:26;;;;;;;19.33;8.25;;;2.40;99.90;;;;;;20913622;28;20029;-76
2023/01/24 01:25:27;;;;;;;18.48;7.78;;;2.40;99.90;;;;;;20912328;28;20031;-76
2023/01/24 01:35:27;;;;;;;16.55;7.22;;;2.40;99.90;;;;;;20912968;28;20171;-77
2023/01/24 01:45:39;;;;;;;15.32;8.07;;;2.40;99.90;;;;;;20911555;28;20044;-76
2023/01/24 01:55:47;;;;;;;14.95;6.95;;;2.40;99.90;;;;;;20892684;28;20032;-77
2023/01/24 02:05:49;;;;;;;15.43;7.43;;;2.40;99.90;;;;;;20909570;28;20029;-77
2023/01/24 02:16:04;;;;;;;20.40;8.68;;;2.40;99.90;;;;;;20909275;28;20039;-77
2023/01/24 02:26:14;;;;;;;19.85;9.25;;;2.40;99.90;;;;;;20895763;28;20422;-76
2023/01/24 02:36:34;;;;;;;19.20;6.90;;;2.40;99.90;;;;;;20901513;28;20032;-76
2023/01/24 02:46:36;;;;;;;24.40;9.95;;;2.40;99.90;;;;;;20888167;28;20139;-76
2023/01/24 03:06:57;;;;;;;23.17;10.25;;;2.50;99.90;;;;;;20905563;28;20079;-77
2023/01/24 03:48:02;;;;;;;23.52;10.02;;;2.40;99.90;;;;;;20885152;28;20039;-77
2023/01/24 03:58:05;;;;;;;23.45;8.98;;;2.40;99.90;;;;;;20886123;28;20040;-76
2023/01/24 04:08:07;;;;;;;25.35;11.20;;;2.40;99.90;;;;;;20896174;28;20036;-76
2023/01/24 04:18:08;;;;;;;21.65;8.70;;;2.40;99.90;;;;;;20889806;28;20040;-77
2023/01/24 04:28:09;;;;;;;19.42;8.38;;;2.40;99.90;;;;;;20900276;28;20391;-77
2023/01/24 04:38:11;;;;;;;21.05;8.88;;;2.30;99.90;;;;;;20897696;28;20037;-77
2023/01/24 04:48:22;;;;;;;;;;;2.30;99.90;;;;;;20914414;28;20218;-77
2023/01/24 04:58:24;;;;;;;20.65;9.10;;;2.30;99.90;;;;;;20898800;28;19928;-77
2023/01/24 05:08:26;;;;;;;20.95;8.18;;;2.30;99.90;;;;;;20935356;28;20016;-77
2023/01/24 05:18:27;;;;;;;19.60;8.32;;;2.40;99.90;;;;;;20896942;28;20036;-76
2023/01/24 05:28:28;;;;;;;22.65;9.15;;;2.30;99.90;;;;;;20915977;28;20823;-77
2023/01/24 05:38:31;;;;;;;19.98;8.25;;;2.30;99.90;;;;;;20914063;28;20560;-77
2023/01/24 05:48:33;;;;;;;20.05;9.48;;;2.30;99.90;;;;;;20897885;28;20040;-78
2023/01/24 05:58:36;;;;;;;20.90;8.57;;;2.30;99.90;;;;;;20893751;28;20202;-78
2023/01/24 06:08:42;;;;;;;16.65;8.02;;;2.40;99.90;;;;;;20891918;28;20021;-77
2023/01/24 06:18:43;;;;;;;16.77;7.90;;;2.40;99.90;;;;;;20911557;28;20388;-77
2023/01/24 06:28:45;;;;;;;16.83;7.70;;;2.40;99.90;;;;;;20889561;28;20723;-77
2023/01/24 06:38:46;;;;;;;19.10;8.40;;;2.40;99.90;;;;;;20905302;28;20094;-77
2023/01/24 06:48:47;;;;;;;17.70;8.15;;;2.40;99.90;;;;;;20908201;28;20475;-78
2023/01/24 06:58:48;;;;;;;14.93;7.35;;;2.90;99.90;;;;;;20907911;28;20037;-78
2023/01/24 07:08:49;;;;;;;14.55;6.95;;;2.60;99.90;;;;;;20908498;28;20032;-78
2023/01/24 07:18:50;;;;;;;18.85;7.38;;;2.50;99.90;;;;;;20906777;28;20032;-78
2023/01/24 07:28:51;;;;;;;16.35;7.28;;;2.50;99.90;;;;;;20905288;28;20051;-77
2023/01/24 07:38:55;;;;;;;17.63;8.07;;;2.50;99.90;;;;;;20912409;28;20028;-77
2023/01/24 07:48:56;;;;;;;12.68;6.50;;;2.50;99.90;;;;;;20913378;28;20044;-77
2023/01/24 07:58:58;;;;;;;16.85;7.30;;;2.50;99.90;;;;;;20917973;28;20388;-76
2023/01/24 08:08:59;;;;;;;16.95;7.90;;;2.50;99.90;;;;;;20917259;28;20571;-76
2023/01/24 08:19:00;;;;;;;15.88;7.32;;;2.50;99.90;;;;;;20916369;28;21062;-76
2023/01/24 08:29:01;;;;;;;13.18;7.30;;;2.60;99.90;;;;;;20916281;28;20036;-78
2023/01/24 08:39:04;;;;;;;18.25;8.02;;;2.50;99.90;;;;;;20919065;28;20087;-77
2023/01/24 08:49:05;;;;;;;16.55;7.75;;;2.60;99.90;;;;;;20919870;28;20041;-78
2023/01/24 08:59:06;;;;;;;23.90;9.20;;;2.60;99.90;;;;;;20916720;28;20060;-77
2023/01/24 09:09:06;;;;;;;20.10;9.32;;;2.70;99.90;;;;;;20917074;28;20043;-78
2023/01/24 09:19:11;;;;;;;20.88;9.25;;;2.70;99.90;;;;;;20917180;28;20044;-78
2023/01/24 09:29:11;;;;;;;20.15;9.27;;;2.70;99.90;;;;;;20920066;28;20482;-78
2023/01/24 09:39:12;;;;;;;19.60;8.07;;;2.70;99.90;;;;;;20915451;28;20165;-77
2023/01/24 09:49:31;;;;;;;18.50;8.25;;;2.80;99.90;;;;;;20911262;28;20025;-76
2023/01/24 09:59:41;;;;;;;16.65;7.65;;;2.80;99.90;;;;;;20917413;28;20037;-77
2023/01/24 10:10:19;;;;;;;16.70;7.97;;;2.80;99.90;;;;;;20916122;28;20029;-78
2023/01/24 10:20:32;;;;;;;15.80;8.13;;;2.90;99.90;;;;;;20917380;28;20712;-78
2023/01/24 10:30:45;;;;;;;18.67;7.35;;;2.90;99.90;;;;;;20919599;28;20036;-78
2023/01/24 10:40:55;;;;;;;15.20;7.57;;;3.00;99.90;;;;;;20924965;28;20388;-78
2023/01/24 10:51:11;;;;;;;18.17;7.25;;;3.00;99.90;;;;;;20906554;28;20463;-78
2023/01/24 11:01:18;;;;;;;17.13;7.63;;;3.00;99.90;;;;;;20916986;28;20373;-78
2023/01/24 11:11:29;;;;;;;19.73;7.65;;;3.00;99.90;;;;;;20916977;28;20430;-78
2023/01/24 11:21:31;;;;;;;13.77;6.97;;;3.10;99.90;;;;;;20931133;28;20064;-78
2023/01/24 11:31:37;;;;;;;13.13;6.72;;;3.20;99.90;;;;;;20935274;28;20441;-78
2023/01/24 11:41:55;;;;;;;15.27;7.78;;;3.10;99.90;;;;;;20936076;28;20496;-79
2023/01/24 11:52:03;;;;;;;15.48;6.57;;;3.20;99.90;;;;;;20919012;28;20812;-77
2023/01/24 12:02:26;;;;;;;18.40;7.63;;;3.40;99.90;;;;;;20920086;28;20401;-76
2023/01/24 12:12:39;;;;;;;12.70;6.32;;;3.20;99.90;;;;;;20918497;28;20471;-77
2023/01/24 12:22:41;;;;;;;17.15;7.22;;;3.20;99.90;;;;;;20919916;28;20075;-77
2023/01/24 12:32:52;;;;;;;14.40;6.70;;;3.20;99.90;;;;;;20921893;28;20086;-77
2023/01/24 12:43:12;;;;;;;13.13;6.47;;;3.30;99.90;;;;;;20916192;28;20618;-76
2023/01/24 12:53:17;;;;;;;17.85;7.95;;;3.20;99.90;;;;;;20918185;28;20340;-78
2023/01/24 13:03:41;;;;;;;13.82;6.38;;;3.20;99.90;;;;;;20923171;28;20048;-77
2023/01/24 13:13:48;;;;;;;12.07;6.57;;;3.30;99.90;;;;;;20914484;28;20524;-78
2023/01/24 13:24:07;;;;;;;14.00;5.78;;;3.20;99.90;;;;;;20921786;28;20041;-77
2023/01/24 13:34:16;;;;;;;12.10;6.38;;;3.20;99.90;;;;;;20921329;28;20063;-78
2023/01/24 13:44:33;;;;;;;13.35;6.03;;;3.20;99.90;;;;;;20921146;28;20484;-78
2023/01/24 13:54:35;;;;;;;12.75;5.75;;;3.20;99.90;;;;;;20921684;28;20043;-78
2023/01/24 14:04:40;;;;;;;12.98;6.45;;;3.20;99.90;;;;;;20919673;28;20496;-78
2023/01/24 14:15:06;;;;;;;15.95;6.70;;;3.20;99.90;;;;;;20916340;28;20043;-78
2023/01/24 14:25:40;;;;;;;11.93;6.10;;;3.20;99.90;;;;;;20913697;28;20051;-78
2023/01/24 14:36:26;;;;;;;12.30;6.30;;;3.10;99.90;;;;;;20909649;28;20044;-78
2023/01/24 14:46:27;;;;;;;16.98;6.90;;;3.10;99.90;;;;;;20895021;28;20079;-78
2023/01/24 14:56:39;;;;;;;13.20;6.38;;;3.10;99.90;;;;;;20896838;28;20551;-76
2023/01/24 15:06:39;;;;;;;16.42;7.65;;;3.10;99.90;;;;;;20911699;28;20037;-77
2023/01/24 15:16:57;;;;;;;60.10;16.40;;;3.10;99.90;;;;;;20916135;28;20029;-78
2023/01/24 15:26:59;;;;;;;21.88;8.07;;;3.10;99.90;;;;;;20922030;28;20040;-77
2023/01/24 15:37:01;;;;;;;14.20;6.75;;;3.00;99.90;;;;;;20928158;28;20036;-78
2023/01/24 15:57:24;;;;;;;14.20;7.45;;;2.90;99.90;;;;;;20928284;28;20177;-78
2023/01/24 16:07:25;;;;;;;15.05;7.30;;;2.90;99.90;;;;;;20929508;28;20077;-77
2023/01/24 16:17:26;;;;;;;21.75;7.10;;;2.90;99.90;;;;;;20934505;28;20044;-77
2023/01/24 16:27:31;;;;;;;16.98;7.22;;;2.90;99.90;;;;;;20920901;28;20033;-77
2023/01/24 16:37:32;;;;;;;17.20;7.68;;;2.80;99.90;;;;;;20922959;28;20032;-77
2023/01/24 16:47:33;;;;;;;12.68;6.38;;;2.90;99.90;;;;;;20925535;28;20030;-77
2023/01/24 16:57:34;;;;;;;14.95;7.70;;;2.80;99.90;;;;;;20932937;28;20408;-77
2023/01/24 17:07:35;;;;;;;13.50;6.90;;;2.80;99.90;;;;;;20933979;28;20031;-77
2023/01/24 17:17:36;;;;;;;15.43;7.82;;;2.90;99.90;;;;;;20930103;28;20029;-78
2023/01/24 17:27:37;;;;;;;16.17;7.20;;;2.80;99.90;;;;;;20927809;28;20041;-76
2023/01/24 17:37:37;;;;;;;16.58;6.72;;;2.80;99.90;;;;;;20934264;28;20043;-76
2023/01/24 17:47:38;;;;;;;15.55;7.03;;;2.70;99.90;;;;;;20920915;28;20740;-77
2023/01/24 17:57:39;;;;;;;21.65;8.57;;;2.80;99.90;;;;;;20912637;28;20079;-76
2023/01/24 18:07:40;;;;;;;24.15;8.65;;;2.80;99.90;;;;;;20911424;28;20078;-75
2023/01/24 18:17:41;;;;;;;19.55;7.35;;;2.70;99.90;;;;;;20898169;28;20081;-77
2023/01/24 18:27:41;;;;;;;17.45;7.88;;;2.70;99.90;;;;;;20910338;28;20040;-77
2023/01/24 18:37:42;;;;;;;15.82;8.15;;;2.70;99.90;;;;;;20909864;28;20117;-77
2023/01/24 18:47:43;;;;;;;17.23;8.23;;;2.60;99.90;;;;;;20910073;28;20098;-77
2023/01/24 18:57:44;;;;;;;18.23;9.20;;;2.70;99.90;;;;;;20909599;28;20032;-77
2023/01/24 19:07:45;;;;;;;19.25;8.32;;;2.70;99.90;;;;;;20915076;28;20047;-77
2023/01/24 19:17:53;;;;;;;18.33;8.32;;;2.70;99.90;;;;;;20910710;28;20047;-78
2023/01/24 19:27:53;;;;;;;17.45;7.72;;;2.60;99.90;;;;;;20915950;28;20376;-77
2023/01/24 19:37:54;;;;;;;20.25;8.30;;;2.60;99.90;;;;;;20919912;28;20025;-77
2023/01/24 19:47:55;;;;;;;19.80;8.55;;;2.60;99.90;;;;;;20921117;28;20043;-76
2023/01/24 19:57:55;;;;;;;19.58;8.55;;;2.60;99.90;;;;;;20924913;28;20499;-76
2023/01/24 20:07:57;;;;;;;18.50;8.25;;;2.60;99.90;;;;;;20923923;28;20082;-77
2023/01/24 20:17:58;;;;;;;18.98;7.55;;;2.60;99.90;;;;;;20926968;28;20554;-77
2023/01/24 20:27:59;;;;;;;20.50;8.32;;;2.60;99.90;;;;;;20925178;28;20041;-76
2023/01/24 20:38:00;;;;;;;19.80;8.85;;;2.60;99.90;;;;;;20918858;28;20381;-78
2023/01/24 20:48:00;;;;;;;18.88;8.63;;;2.60;99.90;;;;;;20928450;28;20041;-77
2023/01/24 20:58:01;;;;;;;26.08;10.27;;;2.70;99.90;;;;;;20917058;28;20033;-77
2023/01/24 21:08:02;;;;;;;19.50;8.20;;;2.70;99.90;;;;;;20918424;28;20032;-77
2023/01/24 21:18:03;;;;;;;19.17;8.77;;;2.50;99.90;;;;;;20920455;28;20672;-77
2023/01/24 21:28:04;;;;;;;20.90;9.30;;;2.60;99.90;;;;;;20919984;28;20036;-78
2023/01/24 21:38:05;;;;;;;22.58;9.32;;;2.60;99.90;;;;;;20925418;28;20032;-77
2023/01/24 21:48:06;;;;;;;21.33;9.18;;;2.50;99.90;;;;;;20914847;28;20040;-77
2023/01/24 21:58:07;;;;;;;21.23;9.57;;;2.50;99.90;;;;;;20912627;28;20139;-76
2023/01/24 22:08:08;;;;;;;27.48;9.38;;;2.50;99.90;;;;;;20917846;28;20503;-76
2023/01/24 22:18:11;;;;;;;19.05;8.73;;;2.60;99.90;;;;;;20911533;28;20094;-77
2023/01/24 22:28:18;;;;;;;20.40;9.23;;;2.60;99.90;;;;;;20910680;28;20033;-77
2023/01/24 22:38:25;;;;;;;20.63;9.43;;;2.60;99.90;;;;;;20910590;28;20056;-76
2023/01/24 22:48:26;;;;;;;18.98;8.88;;;2.60;99.90;;;;;;20910000;28;20037;-77
2023/01/24 22:58:27;;;;;;;18.90;8.70;;;2.60;99.90;;;;;;20889289;28;20403;-76
2023/01/24 23:08:27;;;;;;;24.65;10.52;;;2.50;99.90;;;;;;20906644;28;20081;-77
2023/01/24 23:28:59;;;;;;;17.40;8.63;;;2.50;99.90;;;;;;20903071;28;20036;-77
2023/01/24 23:39:00;;;;;;;21.52;9.68;;;2.50;99.90;;;;;;20902696;28;20127;-76
2023/01/24 23:49:01;;;;;;;23.42;9.57;;;2.50;99.90;;;;;;20902471;28;20040;-77
2023/01/24 23:59:01;;;;;;;20.92;8.77;;;2.50;99.90;;;;;;20901923;28;20042;-76
